createdAt,value
2017-11-26T00:02:27.201Z,4.62
2017-11-26T00:04:56.356Z,4.10
2017-11-26T00:07:24.616Z,4.55
2017-11-26T00:09:52.966Z,3.33
2017-11-26T00:12:22.081Z,4.22
2017-11-26T00:14:50.438Z,4.07
2017-11-26T00:17:18.777Z,3.85
2017-11-26T00:19:47.215Z,3.62
2017-11-26T00:22:15.616Z,3.83
2017-11-26T00:24:44.780Z,3.60
2017-11-26T00:27:13.068Z,4.65
2017-11-26T00:29:41.351Z,3.50
2017-11-26T00:32:09.695Z,3.65
2017-11-26T00:34:38.754Z,3.67
2017-11-26T00:37:07.141Z,4.25
2017-11-26T00:39:35.403Z,4.10
2017-11-26T00:42:03.678Z,4.55
2017-11-26T00:44:31.976Z,4.03
2017-11-26T00:47:01.041Z,4.10
2017-11-26T00:49:29.338Z,3.90
2017-11-26T00:51:57.636Z,4.30
2017-11-26T00:54:28.542Z,3.37
2017-11-26T00:56:58.531Z,3.72
2017-11-26T00:59:26.901Z,4.37
2017-11-26T01:01:56.990Z,4.45
2017-11-26T01:04:25.529Z,3.65
2017-11-26T01:06:53.824Z,3.72
2017-11-26T01:09:22.976Z,4.05
2017-11-26T01:11:52.585Z,3.67
2017-11-26T01:14:20.889Z,5.05
2017-11-26T01:16:49.236Z,4.37
2017-11-26T01:19:19.384Z,4.37
2017-11-26T01:21:47.742Z,3.92
2017-11-26T01:24:16.097Z,3.47
2017-11-26T01:26:44.733Z,3.65
2017-11-26T01:29:13.101Z,4.05
2017-11-26T01:31:41.680Z,4.50
2017-11-26T01:34:09.996Z,4.03
2017-11-26T01:36:38.272Z,4.30
2017-11-26T01:39:06.621Z,4.10
2017-11-26T01:41:34.898Z,3.80
2017-11-26T01:44:04.103Z,4.60
2017-11-26T01:46:33.140Z,4.50
2017-11-26T01:49:01.404Z,4.85
2017-11-26T01:51:29.681Z,5.28
2017-11-26T01:53:57.959Z,4.75
2017-11-26T01:56:26.265Z,4.28
2017-11-26T01:58:54.552Z,4.62
2017-11-26T02:01:22.827Z,5.37
2017-11-26T02:03:58.980Z,5.53
2017-11-26T02:06:27.250Z,5.07
2017-11-26T02:08:55.592Z,5.00
2017-11-26T02:11:23.871Z,5.40
2017-11-26T02:13:52.141Z,5.53
2017-11-26T02:16:20.417Z,5.40
2017-11-26T02:18:48.737Z,5.50
2017-11-26T02:21:17.020Z,5.05
2017-11-26T02:23:45.284Z,5.40
2017-11-26T02:26:13.559Z,5.55
2017-11-26T02:28:41.845Z,4.80
2017-11-26T02:31:28.048Z,12.18
2017-11-26T02:34:13.930Z,6.05
2017-11-26T02:36:42.185Z,5.40
2017-11-26T02:39:10.445Z,5.57
2017-11-26T02:41:38.713Z,4.80
2017-11-26T02:44:07.109Z,6.20
2017-11-26T02:46:35.356Z,5.25
2017-11-26T02:49:04.430Z,5.18
2017-11-26T02:51:32.684Z,5.80
2017-11-26T02:54:02.642Z,5.60
2017-11-26T02:56:31.677Z,5.82
2017-11-26T02:58:59.960Z,5.68
2017-11-26T03:01:28.312Z,5.50
2017-11-26T03:03:56.689Z,5.97
2017-11-26T03:06:24.969Z,6.25
2017-11-26T03:08:53.291Z,5.85
2017-11-26T03:11:21.591Z,5.95
2017-11-26T03:13:50.693Z,5.65
2017-11-26T03:16:19.789Z,6.00
2017-11-26T03:18:48.867Z,5.80
2017-11-26T03:21:17.169Z,7.10
2017-11-26T03:23:45.432Z,6.03
2017-11-26T03:26:13.721Z,6.18
2017-11-26T03:28:42.780Z,5.60
2017-11-26T03:31:11.098Z,5.78
2017-11-26T03:33:39.498Z,6.07
2017-11-26T03:36:08.049Z,5.90
2017-11-26T03:38:37.098Z,5.87
2017-11-26T03:41:05.730Z,5.72
2017-11-26T03:43:34.845Z,6.03
2017-11-26T03:46:03.120Z,5.65
2017-11-26T03:48:31.411Z,5.68
2017-11-26T03:50:59.713Z,6.03
2017-11-26T03:53:28.029Z,5.53
2017-11-26T03:55:57.049Z,5.68
2017-11-26T03:58:25.335Z,6.32
2017-11-26T04:00:53.612Z,6.05
2017-11-26T04:03:21.961Z,5.37
2017-11-26T04:05:51.002Z,5.47
2017-11-26T04:08:19.253Z,4.97
2017-11-26T04:10:47.544Z,6.20
2017-11-26T04:13:16.181Z,5.47
2017-11-26T04:15:45.211Z,5.47
2017-11-26T04:18:13.595Z,6.12
2017-11-26T04:20:41.854Z,5.68
2017-11-26T04:23:10.565Z,5.80
2017-11-26T04:25:38.814Z,5.37
2017-11-26T04:28:08.248Z,8.95
2017-11-26T04:30:36.525Z,6.15
2017-11-26T04:33:04.911Z,7.05
2017-11-26T04:35:33.194Z,6.70
2017-11-26T04:38:01.465Z,6.47
2017-11-26T04:40:29.772Z,5.90
2017-11-26T04:42:58.039Z,5.65
2017-11-26T04:45:26.328Z,7.00
2017-11-26T04:47:55.554Z,6.97
2017-11-26T04:50:23.847Z,8.07
2017-11-26T04:52:52.161Z,5.80
2017-11-26T04:55:20.480Z,6.47
2017-11-26T04:57:48.779Z,6.50
2017-11-26T05:00:17.038Z,6.12
2017-11-26T05:02:45.327Z,5.30
2017-11-26T05:05:13.556Z,7.50
2017-11-26T05:07:41.893Z,5.85
2017-11-26T05:10:10.217Z,6.00
2017-11-26T05:12:38.497Z,5.60
2017-11-26T05:15:07.575Z,5.95
2017-11-26T05:17:35.874Z,6.60
2017-11-26T05:20:04.960Z,5.93
2017-11-26T05:22:33.251Z,6.10
2017-11-26T05:25:02.283Z,5.32
2017-11-26T05:27:30.561Z,5.70
2017-11-26T05:29:59.639Z,6.43
2017-11-26T05:32:27.977Z,5.80
2017-11-26T05:34:56.247Z,6.78
2017-11-26T05:37:24.514Z,6.47
2017-11-26T05:39:52.808Z,5.72
2017-11-26T05:42:21.115Z,5.68
2017-11-26T05:44:49.383Z,5.55
2017-11-26T05:47:17.627Z,5.85
2017-11-26T05:49:45.909Z,5.20
2017-11-26T05:52:14.219Z,8.63
2017-11-26T05:54:42.451Z,5.68
2017-11-26T05:57:10.730Z,5.12
2017-11-26T05:59:39.016Z,5.45
2017-11-26T06:02:07.324Z,5.07
2017-11-26T06:04:35.768Z,4.97
2017-11-26T06:07:04.034Z,5.10
2017-11-26T06:09:32.316Z,5.15
2017-11-26T06:12:00.740Z,4.45
2017-11-26T06:14:29.105Z,5.68
2017-11-26T06:16:57.796Z,5.25
2017-11-26T06:19:26.057Z,5.45
2017-11-26T06:21:54.304Z,5.00
2017-11-26T06:24:22.608Z,5.10
2017-11-26T06:26:50.869Z,4.37
2017-11-26T06:29:19.212Z,5.50
2017-11-26T06:31:51.502Z,5.68
2017-11-26T06:34:19.755Z,5.28
2017-11-26T06:36:48.328Z,5.45
2017-11-26T06:39:17.401Z,5.20
2017-11-26T06:41:45.683Z,4.90
2017-11-26T06:44:14.228Z,4.75
2017-11-26T06:46:42.516Z,4.87
2017-11-26T06:49:10.813Z,4.53
2017-11-26T06:51:39.940Z,5.75
2017-11-26T06:54:08.973Z,4.60
2017-11-26T06:56:37.589Z,5.35
2017-11-26T06:59:05.998Z,5.20
2017-11-26T07:01:35.037Z,5.15
2017-11-26T07:04:03.368Z,4.90
2017-11-26T07:06:31.778Z,5.20
2017-11-26T07:09:01.002Z,5.50
2017-11-26T07:11:29.273Z,5.80
2017-11-26T07:13:57.635Z,5.78
2017-11-26T07:16:25.929Z,5.87
2017-11-26T07:18:54.237Z,5.97
2017-11-26T07:21:23.412Z,6.10
2017-11-26T07:23:51.707Z,6.22
2017-11-26T07:26:20.864Z,5.55
2017-11-26T07:28:49.377Z,5.90
2017-11-26T07:31:17.648Z,5.78
2017-11-26T07:33:45.986Z,7.10
2017-11-26T07:36:14.273Z,7.20
2017-11-26T07:38:42.745Z,7.30
2017-11-26T07:41:12.499Z,7.03
2017-11-26T07:43:44.360Z,6.70
2017-11-26T07:46:13.427Z,8.20
2017-11-26T07:48:42.503Z,7.80
2017-11-26T07:51:10.813Z,9.38
2017-11-26T07:53:39.233Z,7.03
2017-11-26T07:56:07.774Z,8.20
2017-11-26T07:58:36.060Z,7.68
2017-11-26T08:01:04.344Z,9.02
2017-11-26T08:03:33.524Z,9.23
2017-11-26T08:06:01.781Z,8.73
2017-11-26T08:08:30.073Z,7.68
2017-11-26T08:10:58.415Z,9.13
2017-11-26T08:13:26.728Z,8.55
2017-11-26T08:15:54.987Z,7.80
2017-11-26T08:18:23.580Z,8.35
2017-11-26T08:20:51.835Z,9.73
2017-11-26T08:23:20.100Z,9.18
2017-11-26T08:25:48.394Z,7.80
2017-11-26T08:28:16.654Z,8.93
2017-11-26T08:30:45.032Z,8.30
2017-11-26T08:33:14.166Z,9.38
2017-11-26T08:35:42.707Z,9.45
2017-11-26T08:38:11.041Z,9.48
2017-11-26T08:40:40.117Z,8.30
2017-11-26T08:43:08.844Z,8.65
2017-11-26T08:45:37.179Z,8.23
2017-11-26T08:48:06.480Z,9.35
2017-11-26T08:50:34.767Z,9.32
2017-11-26T08:53:03.824Z,9.18
2017-11-26T08:55:32.088Z,8.30
2017-11-26T08:58:00.425Z,9.23
2017-11-26T09:00:29.483Z,8.35
2017-11-26T09:02:57.736Z,8.10
2017-11-26T09:05:25.971Z,9.10
2017-11-26T09:07:57.033Z,8.40
2017-11-26T09:10:25.735Z,8.45
2017-11-26T09:12:54.000Z,8.10
2017-11-26T09:15:22.365Z,8.70
2017-11-26T09:17:50.663Z,7.90
2017-11-26T09:20:19.000Z,8.73
2017-11-26T09:22:48.091Z,8.77
2017-11-26T09:25:16.364Z,7.68
2017-11-26T09:27:44.713Z,7.62
2017-11-26T09:30:14.982Z,7.55
2017-11-26T09:32:44.172Z,8.38
2017-11-26T09:35:13.472Z,7.97
2017-11-26T09:37:41.938Z,7.45
2017-11-26T09:40:10.255Z,8.02
2017-11-26T09:42:38.617Z,6.93
2017-11-26T09:45:07.444Z,7.80
2017-11-26T09:47:36.921Z,8.10
2017-11-26T09:50:05.224Z,7.60
2017-11-26T09:52:33.603Z,6.55
2017-11-26T09:55:02.799Z,7.57
2017-11-26T09:57:31.853Z,6.55
2017-11-26T10:00:00.221Z,7.93
2017-11-26T10:02:28.491Z,7.70
2017-11-26T10:04:56.856Z,5.57
2017-11-26T10:07:25.895Z,6.68
2017-11-26T10:09:54.177Z,6.50
2017-11-26T10:12:22.653Z,6.72
2017-11-26T10:14:50.940Z,7.05
2017-11-26T10:17:19.292Z,7.25
2017-11-26T10:19:47.728Z,7.12
2017-11-26T10:22:16.889Z,7.25
2017-11-26T10:24:45.160Z,6.68
2017-11-26T10:27:16.068Z,6.00
2017-11-26T10:29:45.327Z,6.28
2017-11-26T10:32:13.768Z,7.05
2017-11-26T10:34:42.019Z,6.45
2017-11-26T10:37:10.322Z,6.62
2017-11-26T10:39:38.583Z,7.35
2017-11-26T10:42:06.866Z,6.37
2017-11-26T10:44:35.257Z,6.12
2017-11-26T10:47:03.541Z,5.50
2017-11-26T10:49:32.608Z,6.10
2017-11-26T10:52:00.893Z,7.00
2017-11-26T10:54:29.172Z,5.78
2017-11-26T10:56:58.715Z,5.78
2017-11-26T10:59:27.804Z,6.03
2017-11-26T11:01:56.852Z,5.60
2017-11-26T11:04:25.223Z,5.90
2017-11-26T11:06:53.596Z,5.90
2017-11-26T11:09:21.898Z,5.28
2017-11-26T11:12:12.308Z,5.18
2017-11-26T11:14:42.875Z,4.80
2017-11-26T11:17:11.251Z,4.87
2017-11-26T11:19:39.662Z,4.70
2017-11-26T11:22:07.958Z,5.20
2017-11-26T11:24:36.307Z,4.75
2017-11-26T11:27:04.601Z,5.70
2017-11-26T11:29:38.787Z,5.15
2017-11-26T11:32:07.087Z,4.60
2017-11-26T11:34:38.752Z,4.80
2017-11-26T11:37:07.040Z,4.45
2017-11-26T11:39:35.374Z,4.62
2017-11-26T11:42:03.772Z,5.45
2017-11-26T11:44:35.342Z,4.72
2017-11-26T11:47:05.030Z,4.25
2017-11-26T11:49:35.432Z,4.10
2017-11-26T11:52:05.437Z,4.35
2017-11-26T11:54:33.929Z,4.50
2017-11-26T11:57:03.351Z,4.35
2017-11-26T12:03:08.636Z,4.35
2017-11-26T12:05:48.420Z,3.78
2017-11-26T12:08:38.287Z,4.28
2017-11-26T12:22:44.748Z,4.05
2017-11-26T12:25:26.377Z,3.72
2017-11-26T12:27:54.820Z,4.28
2017-11-26T12:30:23.095Z,3.72
2017-11-26T12:32:51.453Z,3.60
2017-11-26T12:35:20.731Z,3.37
2017-11-26T12:37:51.314Z,3.60
2017-11-26T12:40:20.722Z,3.90
2017-11-26T12:42:49.046Z,4.40
2017-11-26T12:45:19.084Z,3.75
2017-11-26T12:47:47.469Z,3.30
2017-11-26T12:50:15.770Z,3.78
2017-11-26T12:52:44.434Z,3.50
2017-11-26T12:55:22.869Z,4.97
2017-11-26T12:57:52.152Z,3.78
2017-11-26T13:00:21.366Z,3.42
2017-11-26T13:02:53.031Z,3.60
2017-11-26T13:05:21.406Z,4.28
2017-11-26T13:10:47.185Z,3.58
2017-11-26T13:13:18.269Z,3.67
2017-11-26T13:15:46.565Z,3.80
2017-11-26T13:18:15.899Z,3.40
2017-11-26T13:20:44.560Z,3.55
2017-11-26T13:23:16.261Z,3.05
2017-11-26T13:25:44.577Z,3.20
2017-11-26T13:28:15.049Z,3.53
2017-11-26T13:30:43.477Z,3.05
2017-11-26T13:33:11.813Z,3.17
2017-11-26T13:35:40.199Z,3.65
2017-11-26T13:38:08.502Z,3.62
2017-11-26T13:40:36.845Z,3.75
2017-11-26T13:43:05.954Z,3.47
2017-11-26T13:45:34.292Z,2.97
2017-11-26T13:48:02.699Z,2.60
2017-11-26T13:50:31.041Z,2.90
2017-11-26T13:53:00.091Z,2.35
2017-11-26T13:55:28.951Z,3.53
2017-11-26T13:58:03.131Z,3.33
2017-11-26T14:00:31.501Z,2.95
2017-11-26T14:02:59.842Z,2.10
2017-11-26T14:05:28.146Z,2.15
2017-11-26T14:07:56.471Z,2.25
2017-11-26T14:10:25.668Z,2.17
2017-11-26T14:12:54.003Z,1.92
2017-11-26T14:15:23.108Z,2.15
2017-11-26T14:17:51.418Z,2.00
2017-11-26T14:20:19.745Z,4.00
2017-11-26T14:22:47.991Z,1.42
2017-11-26T14:25:16.329Z,2.10
2017-11-26T14:27:45.840Z,4.05
2017-11-26T14:30:14.997Z,1.65
2017-11-26T14:32:43.347Z,4.18
2017-11-26T14:35:11.647Z,2.42
2017-11-26T14:37:40.116Z,1.65
2017-11-26T14:40:10.481Z,2.00
2017-11-26T14:42:39.590Z,1.83
2017-11-26T14:45:08.045Z,4.30
2017-11-26T14:47:36.383Z,1.65
2017-11-26T14:50:07.963Z,2.28
2017-11-26T14:52:36.680Z,2.40
2017-11-26T14:55:05.908Z,2.20
2017-11-26T14:57:34.301Z,1.67
2017-11-26T15:00:02.767Z,2.70
2017-11-26T15:02:31.050Z,2.17
2017-11-26T15:04:59.309Z,1.98
2017-11-26T15:07:27.593Z,3.03
2017-11-26T15:09:55.884Z,2.90
2017-11-26T15:12:26.492Z,2.95
2017-11-26T15:14:54.762Z,2.03
2017-11-26T15:17:23.048Z,2.10
2017-11-26T15:19:52.406Z,1.95
2017-11-26T15:22:20.824Z,2.58
2017-11-26T15:24:49.293Z,2.15
2017-11-26T15:27:17.689Z,2.47
2017-11-26T15:32:46.241Z,1.87
2017-11-26T15:35:17.877Z,2.10
2017-11-26T15:37:46.159Z,1.98
2017-11-26T15:40:15.444Z,3.85
2017-11-26T15:42:43.709Z,3.47
2017-11-26T15:45:13.150Z,2.15
2017-11-26T15:47:41.493Z,2.65
2017-11-26T15:50:09.845Z,2.20
2017-11-26T15:52:38.935Z,2.35
2017-11-26T15:55:10.691Z,4.75
2017-11-26T15:57:39.174Z,1.98
2017-11-26T16:00:07.488Z,2.33
2017-11-26T16:02:35.750Z,2.35
2017-11-26T16:05:04.526Z,2.92
2017-11-26T16:07:32.869Z,1.90
2017-11-26T16:10:01.138Z,2.45
2017-11-26T16:12:29.546Z,1.80
2017-11-26T16:14:58.793Z,2.03
2017-11-26T16:17:28.040Z,3.10
2017-11-26T16:19:57.072Z,2.85
2017-11-26T16:22:25.513Z,5.30
2017-11-26T16:24:54.749Z,3.55
2017-11-26T16:27:23.038Z,2.72
2017-11-26T16:29:51.459Z,2.15
2017-11-26T16:32:19.803Z,1.95
2017-11-26T16:34:48.077Z,4.35
2017-11-26T16:37:16.344Z,3.65
2017-11-26T16:39:45.470Z,2.28
2017-11-26T16:42:14.008Z,2.45
2017-11-26T16:44:42.452Z,1.52
2017-11-26T16:47:10.984Z,2.90
2017-11-26T16:49:40.483Z,2.20
2017-11-26T16:52:09.226Z,2.95
2017-11-26T16:54:37.642Z,3.10
2017-11-26T16:57:05.952Z,2.10
2017-11-26T16:59:34.254Z,3.87
2017-11-26T17:02:03.359Z,2.28
2017-11-26T17:04:31.633Z,4.87
2017-11-26T17:07:00.023Z,1.62
2017-11-26T17:12:36.747Z,2.20
2017-11-26T17:15:05.109Z,1.92
2017-11-26T17:17:34.170Z,3.33
2017-11-26T17:20:03.605Z,2.08
2017-11-26T17:22:31.877Z,3.08
2017-11-26T17:25:00.150Z,2.20
2017-11-26T17:27:28.381Z,4.70
2017-11-26T17:29:56.657Z,2.78
2017-11-26T17:32:25.850Z,2.17
2017-11-26T17:34:54.871Z,2.62
2017-11-26T17:37:23.118Z,2.03
2017-11-26T17:39:52.156Z,2.22
2017-11-26T17:42:20.463Z,3.37
2017-11-26T17:44:48.763Z,2.25
2017-11-26T17:47:18.743Z,5.03
2017-11-26T17:49:47.029Z,4.32
2017-11-26T17:52:15.546Z,3.12
2017-11-26T17:54:43.809Z,3.72
2017-11-26T17:57:16.382Z,4.93
2017-11-26T17:59:44.991Z,2.30
2017-11-26T18:02:13.350Z,1.83
2017-11-26T18:04:42.363Z,2.53
2017-11-26T18:07:11.598Z,5.15
2017-11-26T18:09:52.247Z,2.35
2017-11-26T18:12:21.772Z,1.75
2017-11-26T18:14:51.561Z,2.33
2017-11-26T18:17:20.694Z,2.03
2017-11-26T18:19:50.489Z,2.12
2017-11-26T18:22:31.769Z,2.80
2017-11-26T18:25:00.788Z,3.28
2017-11-26T18:27:32.428Z,2.45
2017-11-26T18:30:01.724Z,2.58
2017-11-26T18:32:30.313Z,2.40
2017-11-26T18:34:59.868Z,3.55
2017-11-26T18:37:28.228Z,1.98
2017-11-26T18:40:08.358Z,2.65
2017-11-26T18:42:37.283Z,3.37
2017-11-26T18:45:06.214Z,2.83
2017-11-26T18:47:34.685Z,2.58
2017-11-26T18:50:16.129Z,3.65
2017-11-26T18:52:46.892Z,3.10
2017-11-26T18:55:17.452Z,3.05
2017-11-26T18:57:46.552Z,5.12
2017-11-26T19:00:14.876Z,2.10
2017-11-26T19:02:43.201Z,2.12
2017-11-26T19:05:12.379Z,3.12
2017-11-26T19:07:40.659Z,2.92
2017-11-26T19:10:08.945Z,4.70
2017-11-26T19:12:37.285Z,2.30
2017-11-26T19:15:06.272Z,2.40
2017-11-26T19:17:34.715Z,3.05
2017-11-26T19:20:03.439Z,2.80
2017-11-26T19:22:31.992Z,2.80
2017-11-26T19:25:00.496Z,3.05
2017-11-26T19:27:28.866Z,3.85
2017-11-26T19:29:58.231Z,3.05
2017-11-26T19:32:28.237Z,2.05
2017-11-26T19:37:36.806Z,2.60
2017-11-26T19:40:06.154Z,2.00
2017-11-26T19:42:34.508Z,2.28
2017-11-26T19:45:02.793Z,2.60
2017-11-26T19:47:31.555Z,2.40
2017-11-26T19:49:59.869Z,3.22
2017-11-26T19:52:28.414Z,2.00
2017-11-26T19:54:56.788Z,2.40
2017-11-26T19:57:25.188Z,3.62
2017-11-26T19:59:53.524Z,2.97
2017-11-26T20:02:22.566Z,2.35
2017-11-26T20:04:50.854Z,3.15
2017-11-26T20:07:19.192Z,4.55
2017-11-26T20:09:47.483Z,5.00
2017-11-26T20:12:15.822Z,4.30
2017-11-26T20:14:44.874Z,4.35
2017-11-26T20:17:13.163Z,2.22
2017-11-26T20:19:42.420Z,3.20
2017-11-26T20:22:10.691Z,2.55
2017-11-26T20:24:39.006Z,4.22
2017-11-26T20:27:07.329Z,3.70
2017-11-26T20:29:35.693Z,3.08
2017-11-26T20:32:04.730Z,2.37
2017-11-26T20:34:33.110Z,2.70
2017-11-26T20:37:01.396Z,2.53
2017-11-26T20:39:29.795Z,3.75
2017-11-26T20:41:58.068Z,1.77
2017-11-26T20:44:26.451Z,3.15
2017-11-26T20:46:54.829Z,3.08
2017-11-26T20:49:23.140Z,3.05
2017-11-26T20:51:51.397Z,2.83
2017-11-26T20:54:20.427Z,2.00
2017-11-26T20:56:48.737Z,2.78
2017-11-26T20:59:17.412Z,2.35
2017-11-26T21:01:50.277Z,2.85
2017-11-26T21:04:19.422Z,4.03
2017-11-26T21:06:47.663Z,3.78
2017-11-26T21:09:16.725Z,2.35
2017-11-26T21:11:45.032Z,2.95
2017-11-26T21:14:14.170Z,3.12
2017-11-26T21:16:42.484Z,1.95
2017-11-26T21:19:11.130Z,2.20
2017-11-26T21:21:39.361Z,2.05
2017-11-26T21:24:07.616Z,4.50
2017-11-26T21:26:35.893Z,4.45
2017-11-26T21:29:05.128Z,4.05
2017-11-26T21:31:33.391Z,3.67
2017-11-26T21:34:01.739Z,3.62
2017-11-26T21:36:31.070Z,3.75
2017-11-26T21:38:59.296Z,4.15
2017-11-26T21:41:28.462Z,2.22
2017-11-26T21:43:56.716Z,3.20
2017-11-26T21:46:24.999Z,2.97
2017-11-26T21:48:53.387Z,3.50
2017-11-26T21:51:21.637Z,3.80
2017-11-26T21:53:50.013Z,3.58
2017-11-26T21:56:18.286Z,2.55
2017-11-26T21:58:46.550Z,3.50
2017-11-26T22:01:15.674Z,3.58
2017-11-26T22:03:43.929Z,3.85
2017-11-26T22:06:13.045Z,2.10
2017-11-26T22:08:41.385Z,2.50
2017-11-26T22:11:09.635Z,4.03
2017-11-26T22:13:38.011Z,2.30
2017-11-26T22:16:06.304Z,1.98
2017-11-26T22:18:34.569Z,4.95
2017-11-26T22:21:02.847Z,2.45
2017-11-26T22:23:31.862Z,3.60
2017-11-26T22:26:01.284Z,2.95
2017-11-26T22:28:29.806Z,1.73
2017-11-26T22:30:58.989Z,4.05
2017-11-26T22:33:27.324Z,2.22
2017-11-26T22:35:56.349Z,2.40
2017-11-26T22:38:25.624Z,3.00
2017-11-26T22:40:54.682Z,2.30
2017-11-26T22:43:23.804Z,2.65
2017-11-26T22:45:53.644Z,3.75
2017-11-26T22:48:22.907Z,4.00
2017-11-26T22:50:51.985Z,2.15
2017-11-26T22:53:20.256Z,2.40
2017-11-26T22:55:49.422Z,2.92
2017-11-26T22:58:17.680Z,2.75
2017-11-26T23:00:46.038Z,2.87
2017-11-26T23:03:14.271Z,2.62
2017-11-26T23:05:42.909Z,2.87
2017-11-26T23:08:11.955Z,2.60
2017-11-26T23:10:40.219Z,2.20
2017-11-26T23:13:08.475Z,2.28
2017-11-26T23:15:37.624Z,4.45
2017-11-26T23:18:06.727Z,3.28
2017-11-26T23:20:36.220Z,2.78
2017-11-26T23:23:05.229Z,2.37
2017-11-26T23:25:34.311Z,4.43
2017-11-26T23:28:03.357Z,4.07
2017-11-26T23:30:32.612Z,2.22
2017-11-26T23:33:00.881Z,4.70
2017-11-26T23:35:30.011Z,2.97
2017-11-26T23:37:58.283Z,3.75
2017-11-26T23:40:27.286Z,3.35
2017-11-26T23:42:55.507Z,2.87
2017-11-26T23:45:24.583Z,2.50
2017-11-26T23:47:53.344Z,6.72
2017-11-26T23:50:21.625Z,3.30
2017-11-26T23:52:49.915Z,3.78
2017-11-26T23:55:18.209Z,3.70
2017-11-26T23:57:47.249Z,2.90
